sensor_id;sensor_type;location;lat;lon;timestamp;P1;durP1;ratioP1;P2;durP2;ratioP2
22705;SDS011;11520;51.198;4.468;2023-02-05T00:01:25;26.98;;;15.95;;
22705;SDS011;11520;51.198;4.468;2023-02-05T00:03:51;30.77;;;16.63;;
22705;SDS011;11520;51.198;4.468;2023-02-05T00:06:17;27.30;;;16.08;;
22705;SDS011;11520;51.198;4.468;2023-02-05T00:08:43;30.75;;;16.45;;
22705;SDS011;11520;51.198;4.468;2023-02-05T00:11:09;30.90;;;15.88;;
22705;SDS011;11520;51.198;4.468;2023-02-05T00:13:38;34.75;;;17.38;;
22705;SDS011;11520;51.198;4.468;2023-02-05T00:16:14;30.27;;;16.98;;
22705;SDS011;11520;51.198;4.468;2023-02-05T00:18:41;33.38;;;17.20;;
22705;SDS011;11520;51.198;4.468;2023-02-05T00:21:08;27.63;;;15.85;;
22705;SDS011;11520;51.198;4.468;2023-02-05T00:23:34;33.15;;;18.15;;
22705;SDS011;11520;51.198;4.468;2023-02-05T00:26:01;37.15;;;18.35;;
22705;SDS011;11520;51.198;4.468;2023-02-05T00:28:32;35.15;;;18.25;;
22705;SDS011;11520;51.198;4.468;2023-02-05T00:30:59;33.35;;;17.48;;
22705;SDS011;11520;51.198;4.468;2023-02-05T00:33:25;36.55;;;19.33;;
22705;SDS011;11520;51.198;4.468;2023-02-05T00:35:51;34.25;;;17.73;;
22705;SDS011;11520;51.198;4.468;2023-02-05T00:38:17;41.40;;;20.35;;
22705;SDS011;11520;51.198;4.468;2023-02-05T00:40:44;32.38;;;18.17;;
22705;SDS011;11520;51.198;4.468;2023-02-05T00:43:12;32.15;;;18.40;;
22705;SDS011;11520;51.198;4.468;2023-02-05T00:45:39;36.50;;;18.88;;
22705;SDS011;11520;51.198;4.468;2023-02-05T00:48:06;40.55;;;20.45;;
22705;SDS011;11520;51.198;4.468;2023-02-05T00:50:32;35.97;;;19.58;;
22705;SDS011;11520;51.198;4.468;2023-02-05T00:53:00;39.05;;;20.05;;
22705;SDS011;11520;51.198;4.468;2023-02-05T00:55:26;39.10;;;20.30;;
22705;SDS011;11520;51.198;4.468;2023-02-05T00:57:53;39.20;;;20.48;;
22705;SDS011;11520;51.198;4.468;2023-02-05T01:00:21;36.70;;;18.90;;
22705;SDS011;11520;51.198;4.468;2023-02-05T01:02:47;38.83;;;20.40;;
22705;SDS011;11520;51.198;4.468;2023-02-05T01:05:12;38.22;;;19.27;;
22705;SDS011;11520;51.198;4.468;2023-02-05T01:07:38;37.58;;;19.92;;
22705;SDS011;11520;51.198;4.468;2023-02-05T01:10:04;33.03;;;18.38;;
22705;SDS011;11520;51.198;4.468;2023-02-05T01:15:00;35.20;;;18.70;;
22705;SDS011;11520;51.198;4.468;2023-02-05T01:17:28;39.80;;;19.30;;
22705;SDS011;11520;51.198;4.468;2023-02-05T01:19:54;34.25;;;18.63;;
22705;SDS011;11520;51.198;4.468;2023-02-05T01:22:21;32.25;;;17.42;;
22705;SDS011;11520;51.198;4.468;2023-02-05T01:24:47;34.10;;;18.95;;
22705;SDS011;11520;51.198;4.468;2023-02-05T01:27:14;34.08;;;17.33;;
22705;SDS011;11520;51.198;4.468;2023-02-05T01:29:39;29.75;;;17.52;;
22705;SDS011;11520;51.198;4.468;2023-02-05T01:32:06;31.33;;;18.73;;
22705;SDS011;11520;51.198;4.468;2023-02-05T01:34:32;36.95;;;16.98;;
22705;SDS011;11520;51.198;4.468;2023-02-05T01:36:58;34.53;;;17.58;;
22705;SDS011;11520;51.198;4.468;2023-02-05T01:39:24;31.63;;;16.50;;
22705;SDS011;11520;51.198;4.468;2023-02-05T01:41:50;28.90;;;16.73;;
22705;SDS011;11520;51.198;4.468;2023-02-05T01:44:18;30.48;;;16.90;;
22705;SDS011;11520;51.198;4.468;2023-02-05T01:46:53;28.40;;;15.35;;
22705;SDS011;11520;51.198;4.468;2023-02-05T01:49:41;28.08;;;15.38;;
22705;SDS011;11520;51.198;4.468;2023-02-05T01:52:08;26.30;;;15.18;;
22705;SDS011;11520;51.198;4.468;2023-02-05T01:54:39;27.98;;;14.93;;
22705;SDS011;11520;51.198;4.468;2023-02-05T01:57:11;29.25;;;14.52;;
22705;SDS011;11520;51.198;4.468;2023-02-05T01:59:42;25.13;;;13.50;;
22705;SDS011;11520;51.198;4.468;2023-02-05T02:07:06;23.27;;;12.82;;
22705;SDS011;11520;51.198;4.468;2023-02-05T02:09:34;23.95;;;12.43;;
22705;SDS011;11520;51.198;4.468;2023-02-05T02:12:01;17.10;;;10.70;;
22705;SDS011;11520;51.198;4.468;2023-02-05T02:14:28;21.75;;;11.55;;
22705;SDS011;11520;51.198;4.468;2023-02-05T02:16:58;13.95;;;10.00;;
22705;SDS011;11520;51.198;4.468;2023-02-05T02:19:39;13.75;;;9.48;;
22705;SDS011;11520;51.198;4.468;2023-02-05T02:30:29;13.38;;;8.07;;
22705;SDS011;11520;51.198;4.468;2023-02-05T02:36:10;11.38;;;7.57;;
22705;SDS011;11520;51.198;4.468;2023-02-05T02:47:15;10.50;;;5.68;;
22705;SDS011;11520;51.198;4.468;2023-02-05T02:49:56;7.85;;;5.47;;
22705;SDS011;11520;51.198;4.468;2023-02-05T02:52:28;8.82;;;5.40;;
22705;SDS011;11520;51.198;4.468;2023-02-05T02:55:03;12.88;;;5.13;;
22705;SDS011;11520;51.198;4.468;2023-02-05T02:57:34;7.97;;;4.80;;
22705;SDS011;11520;51.198;4.468;2023-02-05T03:00:04;11.27;;;4.53;;
22705;SDS011;11520;51.198;4.468;2023-02-05T03:05:08;6.30;;;3.40;;
22705;SDS011;11520;51.198;4.468;2023-02-05T03:07:57;8.90;;;4.03;;
22705;SDS011;11520;51.198;4.468;2023-02-05T03:10:37;6.80;;;3.72;;
22705;SDS011;11520;51.198;4.468;2023-02-05T03:13:09;7.53;;;4.43;;
22705;SDS011;11520;51.198;4.468;2023-02-05T03:15:41;11.38;;;4.43;;
22705;SDS011;11520;51.198;4.468;2023-02-05T03:18:09;9.35;;;4.93;;
22705;SDS011;11520;51.198;4.468;2023-02-05T03:20:53;12.05;;;5.25;;
22705;SDS011;11520;51.198;4.468;2023-02-05T03:23:22;5.82;;;4.18;;
22705;SDS011;11520;51.198;4.468;2023-02-05T03:25:50;8.52;;;4.25;;
22705;SDS011;11520;51.198;4.468;2023-02-05T03:28:15;9.32;;;4.30;;
22705;SDS011;11520;51.198;4.468;2023-02-05T03:36:01;8.02;;;4.22;;
22705;SDS011;11520;51.198;4.468;2023-02-05T03:38:49;9.63;;;5.25;;
22705;SDS011;11520;51.198;4.468;2023-02-05T03:41:53;10.27;;;4.85;;
22705;SDS011;11520;51.198;4.468;2023-02-05T03:45:06;9.68;;;4.15;;
22705;SDS011;11520;51.198;4.468;2023-02-05T03:56:47;8.57;;;4.18;;
22705;SDS011;11520;51.198;4.468;2023-02-05T03:59:39;9.85;;;4.55;;
22705;SDS011;11520;51.198;4.468;2023-02-05T04:02:06;6.97;;;4.05;;
22705;SDS011;11520;51.198;4.468;2023-02-05T04:04:33;8.55;;;4.82;;
22705;SDS011;11520;51.198;4.468;2023-02-05T04:06:58;11.88;;;4.75;;
22705;SDS011;11520;51.198;4.468;2023-02-05T04:09:24;9.82;;;5.00;;
22705;SDS011;11520;51.198;4.468;2023-02-05T04:11:50;9.40;;;5.00;;
22705;SDS011;11520;51.198;4.468;2023-02-05T04:14:15;11.88;;;5.18;;
22705;SDS011;11520;51.198;4.468;2023-02-05T04:16:42;11.45;;;5.15;;
22705;SDS011;11520;51.198;4.468;2023-02-05T04:19:08;10.85;;;4.90;;
22705;SDS011;11520;51.198;4.468;2023-02-05T04:21:33;12.77;;;5.25;;
22705;SDS011;11520;51.198;4.468;2023-02-05T04:23:59;10.93;;;4.63;;
22705;SDS011;11520;51.198;4.468;2023-02-05T04:26:25;13.77;;;5.95;;
22705;SDS011;11520;51.198;4.468;2023-02-05T04:28:53;10.95;;;5.53;;
22705;SDS011;11520;51.198;4.468;2023-02-05T04:31:20;10.90;;;5.35;;
22705;SDS011;11520;51.198;4.468;2023-02-05T04:33:47;11.68;;;6.05;;
22705;SDS011;11520;51.198;4.468;2023-02-05T04:36:12;13.20;;;6.43;;
22705;SDS011;11520;51.198;4.468;2023-02-05T04:38:38;16.25;;;6.45;;
22705;SDS011;11520;51.198;4.468;2023-02-05T04:41:04;14.65;;;6.07;;
22705;SDS011;11520;51.198;4.468;2023-02-05T04:43:32;12.40;;;5.32;;
22705;SDS011;11520;51.198;4.468;2023-02-05T04:46:03;16.67;;;6.82;;
22705;SDS011;11520;51.198;4.468;2023-02-05T04:48:34;13.45;;;7.65;;
22705;SDS011;11520;51.198;4.468;2023-02-05T04:51:04;18.13;;;7.53;;
22705;SDS011;11520;51.198;4.468;2023-02-05T04:53:34;18.45;;;7.72;;
22705;SDS011;11520;51.198;4.468;2023-02-05T04:56:16;16.33;;;7.80;;
22705;SDS011;11520;51.198;4.468;2023-02-05T04:58:42;16.70;;;7.88;;
22705;SDS011;11520;51.198;4.468;2023-02-05T05:01:27;16.08;;;8.38;;
22705;SDS011;11520;51.198;4.468;2023-02-05T05:03:52;20.10;;;9.75;;
22705;SDS011;11520;51.198;4.468;2023-02-05T05:06:20;21.25;;;9.68;;
22705;SDS011;11520;51.198;4.468;2023-02-05T05:08:49;17.77;;;9.23;;
22705;SDS011;11520;51.198;4.468;2023-02-05T05:11:16;19.80;;;9.57;;
22705;SDS011;11520;51.198;4.468;2023-02-05T05:13:46;20.60;;;9.93;;
22705;SDS011;11520;51.198;4.468;2023-02-05T05:16:13;26.95;;;11.00;;
22705;SDS011;11520;51.198;4.468;2023-02-05T05:18:40;21.10;;;9.52;;
22705;SDS011;11520;51.198;4.468;2023-02-05T05:21:07;20.85;;;10.18;;
22705;SDS011;11520;51.198;4.468;2023-02-05T05:23:36;25.73;;;11.30;;
22705;SDS011;11520;51.198;4.468;2023-02-05T05:26:05;19.00;;;10.45;;
22705;SDS011;11520;51.198;4.468;2023-02-05T05:28:34;19.67;;;10.90;;
22705;SDS011;11520;51.198;4.468;2023-02-05T05:33:38;23.90;;;10.75;;
22705;SDS011;11520;51.198;4.468;2023-02-05T05:36:04;19.70;;;11.57;;
22705;SDS011;11520;51.198;4.468;2023-02-05T05:38:32;22.60;;;11.55;;
22705;SDS011;11520;51.198;4.468;2023-02-05T05:40:58;20.38;;;11.10;;
22705;SDS011;11520;51.198;4.468;2023-02-05T05:43:44;23.10;;;11.43;;
22705;SDS011;11520;51.198;4.468;2023-02-05T05:46:13;19.05;;;11.07;;
22705;SDS011;11520;51.198;4.468;2023-02-05T05:48:46;14.18;;;8.90;;
22705;SDS011;11520;51.198;4.468;2023-02-05T05:51:15;11.63;;;7.93;;
22705;SDS011;11520;51.198;4.468;2023-02-05T05:53:41;16.25;;;8.70;;
22705;SDS011;11520;51.198;4.468;2023-02-05T05:56:07;12.20;;;7.63;;
22705;SDS011;11520;51.198;4.468;2023-02-05T05:58:33;14.20;;;8.52;;
22705;SDS011;11520;51.198;4.468;2023-02-05T06:00:59;12.98;;;7.60;;
22705;SDS011;11520;51.198;4.468;2023-02-05T06:03:25;12.85;;;7.60;;
22705;SDS011;11520;51.198;4.468;2023-02-05T06:05:52;11.35;;;6.05;;
22705;SDS011;11520;51.198;4.468;2023-02-05T06:08:18;9.65;;;5.00;;
22705;SDS011;11520;51.198;4.468;2023-02-05T06:10:44;9.80;;;5.22;;
22705;SDS011;11520;51.198;4.468;2023-02-05T06:13:11;8.63;;;3.63;;
22705;SDS011;11520;51.198;4.468;2023-02-05T06:15:37;7.32;;;3.60;;
22705;SDS011;11520;51.198;4.468;2023-02-05T06:18:09;8.90;;;4.00;;
22705;SDS011;11520;51.198;4.468;2023-02-05T06:20:36;12.57;;;4.13;;
22705;SDS011;11520;51.198;4.468;2023-02-05T06:23:04;5.75;;;2.30;;
22705;SDS011;11520;51.198;4.468;2023-02-05T06:25:30;9.13;;;2.25;;
22705;SDS011;11520;51.198;4.468;2023-02-05T06:30:25;6.97;;;1.90;;
22705;SDS011;11520;51.198;4.468;2023-02-05T06:32:51;7.50;;;1.83;;
22705;SDS011;11520;51.198;4.468;2023-02-05T06:35:17;15.63;;;2.10;;
22705;SDS011;11520;51.198;4.468;2023-02-05T06:37:43;10.90;;;2.20;;
22705;SDS011;11520;51.198;4.468;2023-02-05T06:40:10;9.82;;;2.00;;
22705;SDS011;11520;51.198;4.468;2023-02-05T06:42:36;7.15;;;1.75;;
22705;SDS011;11520;51.198;4.468;2023-02-05T06:47:31;9.80;;;2.20;;
22705;SDS011;11520;51.198;4.468;2023-02-05T06:52:27;11.10;;;1.88;;
22705;SDS011;11520;51.198;4.468;2023-02-05T06:54:54;12.20;;;2.08;;
22705;SDS011;11520;51.198;4.468;2023-02-05T06:57:22;5.63;;;1.23;;
22705;SDS011;11520;51.198;4.468;2023-02-05T06:59:49;11.20;;;1.70;;
22705;SDS011;11520;51.198;4.468;2023-02-05T07:02:15;13.93;;;1.55;;
22705;SDS011;11520;51.198;4.468;2023-02-05T07:04:41;6.53;;;1.25;;
22705;SDS011;11520;51.198;4.468;2023-02-05T07:07:08;11.18;;;2.70;;
22705;SDS011;11520;51.198;4.468;2023-02-05T07:09:34;8.98;;;1.15;;
22705;SDS011;11520;51.198;4.468;2023-02-05T07:12:01;8.50;;;1.40;;
22705;SDS011;11520;51.198;4.468;2023-02-05T07:14:28;9.55;;;1.23;;
22705;SDS011;11520;51.198;4.468;2023-02-05T07:16:55;10.63;;;1.38;;
22705;SDS011;11520;51.198;4.468;2023-02-05T07:19:22;9.95;;;1.58;;
22705;SDS011;11520;51.198;4.468;2023-02-05T07:21:49;10.75;;;1.23;;
22705;SDS011;11520;51.198;4.468;2023-02-05T07:24:16;7.70;;;1.20;;
22705;SDS011;11520;51.198;4.468;2023-02-05T07:26:41;9.55;;;1.10;;
22705;SDS011;11520;51.198;4.468;2023-02-05T07:29:09;7.55;;;1.30;;
22705;SDS011;11520;51.198;4.468;2023-02-05T07:31:37;9.38;;;1.30;;
22705;SDS011;11520;51.198;4.468;2023-02-05T07:34:02;8.60;;;1.30;;
22705;SDS011;11520;51.198;4.468;2023-02-05T07:36:31;11.13;;;1.80;;
22705;SDS011;11520;51.198;4.468;2023-02-05T07:38:58;10.40;;;1.83;;
22705;SDS011;11520;51.198;4.468;2023-02-05T07:41:26;9.60;;;1.05;;
22705;SDS011;11520;51.198;4.468;2023-02-05T07:43:56;14.18;;;1.70;;
22705;SDS011;11520;51.198;4.468;2023-02-05T07:46:21;9.50;;;1.58;;
22705;SDS011;11520;51.198;4.468;2023-02-05T07:48:50;11.40;;;1.63;;
22705;SDS011;11520;51.198;4.468;2023-02-05T07:51:20;12.63;;;1.85;;
22705;SDS011;11520;51.198;4.468;2023-02-05T07:53:48;10.55;;;1.58;;
22705;SDS011;11520;51.198;4.468;2023-02-05T07:56:14;9.52;;;1.70;;
22705;SDS011;11520;51.198;4.468;2023-02-05T07:58:42;10.18;;;1.60;;
22705;SDS011;11520;51.198;4.468;2023-02-05T08:01:08;13.05;;;1.50;;
22705;SDS011;11520;51.198;4.468;2023-02-05T08:03:35;11.60;;;2.00;;
22705;SDS011;11520;51.198;4.468;2023-02-05T08:06:04;14.98;;;2.05;;
22705;SDS011;11520;51.198;4.468;2023-02-05T08:08:33;9.38;;;1.85;;
22705;SDS011;11520;51.198;4.468;2023-02-05T08:11:02;11.18;;;2.45;;
22705;SDS011;11520;51.198;4.468;2023-02-05T08:13:30;18.40;;;2.13;;
22705;SDS011;11520;51.198;4.468;2023-02-05T08:16:05;9.48;;;1.73;;
22705;SDS011;11520;51.198;4.468;2023-02-05T08:18:31;10.52;;;1.80;;
22705;SDS011;11520;51.198;4.468;2023-02-05T08:20:58;7.30;;;1.77;;
22705;SDS011;11520;51.198;4.468;2023-02-05T08:23:24;18.15;;;2.40;;
22705;SDS011;11520;51.198;4.468;2023-02-05T08:25:53;9.32;;;2.22;;
22705;SDS011;11520;51.198;4.468;2023-02-05T08:28:20;13.18;;;2.53;;
22705;SDS011;11520;51.198;4.468;2023-02-05T08:30:46;13.18;;;2.83;;
22705;SDS011;11520;51.198;4.468;2023-02-05T08:33:11;19.73;;;2.78;;
22705;SDS011;11520;51.198;4.468;2023-02-05T08:35:37;20.65;;;3.05;;
22705;SDS011;11520;51.198;4.468;2023-02-05T08:38:04;20.45;;;3.08;;
22705;SDS011;11520;51.198;4.468;2023-02-05T08:40:30;22.50;;;2.47;;
22705;SDS011;11520;51.198;4.468;2023-02-05T08:42:57;15.93;;;2.42;;
22705;SDS011;11520;51.198;4.468;2023-02-05T08:45:24;16.17;;;2.60;;
22705;SDS011;11520;51.198;4.468;2023-02-05T08:47:53;16.85;;;2.03;;
22705;SDS011;11520;51.198;4.468;2023-02-05T08:50:19;18.40;;;2.42;;
22705;SDS011;11520;51.198;4.468;2023-02-05T08:52:47;15.93;;;2.80;;
22705;SDS011;11520;51.198;4.468;2023-02-05T08:55:14;23.10;;;2.67;;
22705;SDS011;11520;51.198;4.468;2023-02-05T08:57:42;12.80;;;2.50;;
22705;SDS011;11520;51.198;4.468;2023-02-05T09:00:09;16.90;;;2.42;;
22705;SDS011;11520;51.198;4.468;2023-02-05T09:02:36;16.38;;;2.50;;
22705;SDS011;11520;51.198;4.468;2023-02-05T09:05:03;16.30;;;1.90;;
22705;SDS011;11520;51.198;4.468;2023-02-05T09:07:29;12.43;;;2.28;;
22705;SDS011;11520;51.198;4.468;2023-02-05T09:09:57;19.38;;;2.35;;
22705;SDS011;11520;51.198;4.468;2023-02-05T09:12:25;12.45;;;2.25;;
22705;SDS011;11520;51.198;4.468;2023-02-05T09:14:50;12.30;;;2.08;;
22705;SDS011;11520;51.198;4.468;2023-02-05T09:19:50;12.65;;;2.25;;
22705;SDS011;11520;51.198;4.468;2023-02-05T09:22:15;14.48;;;2.40;;
22705;SDS011;11520;51.198;4.468;2023-02-05T09:24:42;14.85;;;2.42;;
22705;SDS011;11520;51.198;4.468;2023-02-05T09:27:08;20.80;;;2.70;;
22705;SDS011;11520;51.198;4.468;2023-02-05T09:29:39;17.33;;;2.83;;
22705;SDS011;11520;51.198;4.468;2023-02-05T09:32:05;16.67;;;2.47;;
22705;SDS011;11520;51.198;4.468;2023-02-05T09:34:31;18.50;;;3.50;;
22705;SDS011;11520;51.198;4.468;2023-02-05T09:36:57;24.40;;;3.33;;
22705;SDS011;11520;51.198;4.468;2023-02-05T09:39:25;21.75;;;3.88;;
22705;SDS011;11520;51.198;4.468;2023-02-05T09:42:05;22.08;;;4.22;;
22705;SDS011;11520;51.198;4.468;2023-02-05T09:51:02;25.40;;;3.83;;
22705;SDS011;11520;51.198;4.468;2023-02-05T09:53:32;21.70;;;3.67;;
22705;SDS011;11520;51.198;4.468;2023-02-05T09:56:00;23.90;;;4.50;;
22705;SDS011;11520;51.198;4.468;2023-02-05T09:58:29;31.45;;;5.38;;
22705;SDS011;11520;51.198;4.468;2023-02-05T10:03:59;16.20;;;3.28;;
22705;SDS011;11520;51.198;4.468;2023-02-05T10:06:43;23.70;;;3.35;;
22705;SDS011;11520;51.198;4.468;2023-02-05T10:09:46;21.27;;;4.00;;
22705;SDS011;11520;51.198;4.468;2023-02-05T10:15:31;15.07;;;2.85;;
22705;SDS011;11520;51.198;4.468;2023-02-05T10:26:13;25.55;;;3.85;;
22705;SDS011;11520;51.198;4.468;2023-02-05T10:31:36;21.25;;;3.47;;
22705;SDS011;11520;51.198;4.468;2023-02-05T10:34:18;29.10;;;3.47;;
22705;SDS011;11520;51.198;4.468;2023-02-05T10:36:56;21.67;;;3.42;;
22705;SDS011;11520;51.198;4.468;2023-02-05T10:39:24;30.80;;;3.75;;
22705;SDS011;11520;51.198;4.468;2023-02-05T10:42:00;22.35;;;3.90;;
22705;SDS011;11520;51.198;4.468;2023-02-05T10:44:39;19.65;;;3.75;;
22705;SDS011;11520;51.198;4.468;2023-02-05T10:52:19;24.15;;;3.55;;
22705;SDS011;11520;51.198;4.468;2023-02-05T10:54:45;22.27;;;3.83;;
22705;SDS011;11520;51.198;4.468;2023-02-05T10:57:13;22.48;;;4.55;;
22705;SDS011;11520;51.198;4.468;2023-02-05T11:02:39;17.20;;;3.47;;
22705;SDS011;11520;51.198;4.468;2023-02-05T11:05:15;16.40;;;3.40;;
22705;SDS011;11520;51.198;4.468;2023-02-05T11:07:47;25.25;;;3.53;;
22705;SDS011;11520;51.198;4.468;2023-02-05T11:10:47;21.83;;;3.65;;
22705;SDS011;11520;51.198;4.468;2023-02-05T11:13:20;19.45;;;3.60;;
22705;SDS011;11520;51.198;4.468;2023-02-05T11:15:56;23.17;;;4.20;;
22705;SDS011;11520;51.198;4.468;2023-02-05T11:18:34;23.80;;;3.33;;
22705;SDS011;11520;51.198;4.468;2023-02-05T11:21:06;23.67;;;3.15;;
22705;SDS011;11520;51.198;4.468;2023-02-05T11:23:33;18.52;;;2.97;;
22705;SDS011;11520;51.198;4.468;2023-02-05T11:26:21;17.63;;;4.57;;
22705;SDS011;11520;51.198;4.468;2023-02-05T11:28:48;20.98;;;3.47;;
22705;SDS011;11520;51.198;4.468;2023-02-05T11:36:36;19.63;;;4.40;;
22705;SDS011;11520;51.198;4.468;2023-02-05T11:39:20;23.25;;;3.80;;
22705;SDS011;11520;51.198;4.468;2023-02-05T11:42:19;17.48;;;2.65;;
22705;SDS011;11520;51.198;4.468;2023-02-05T11:44:55;15.60;;;2.95;;
22705;SDS011;11520;51.198;4.468;2023-02-05T11:47:30;23.05;;;3.78;;
22705;SDS011;11520;51.198;4.468;2023-02-05T11:50:00;21.10;;;3.50;;
22705;SDS011;11520;51.198;4.468;2023-02-05T11:52:29;22.80;;;4.15;;
22705;SDS011;11520;51.198;4.468;2023-02-05T11:55:00;18.75;;;4.32;;
22705;SDS011;11520;51.198;4.468;2023-02-05T11:57:32;19.30;;;3.70;;
22705;SDS011;11520;51.198;4.468;2023-02-05T12:00:01;14.70;;;3.35;;
22705;SDS011;11520;51.198;4.468;2023-02-05T12:02:37;15.48;;;2.90;;
22705;SDS011;11520;51.198;4.468;2023-02-05T12:07:35;14.10;;;3.20;;
22705;SDS011;11520;51.198;4.468;2023-02-05T12:10:17;11.85;;;2.75;;
22705;SDS011;11520;51.198;4.468;2023-02-05T12:12:58;19.45;;;3.60;;
22705;SDS011;11520;51.198;4.468;2023-02-05T12:15:39;19.75;;;3.35;;
22705;SDS011;11520;51.198;4.468;2023-02-05T12:18:21;17.48;;;3.92;;
22705;SDS011;11520;51.198;4.468;2023-02-05T12:26:50;17.42;;;3.22;;
22705;SDS011;11520;51.198;4.468;2023-02-05T12:42:35;14.50;;;2.53;;
22705;SDS011;11520;51.198;4.468;2023-02-05T12:50:38;13.88;;;3.20;;
22705;SDS011;11520;51.198;4.468;2023-02-05T12:58:34;21.25;;;4.22;;
22705;SDS011;11520;51.198;4.468;2023-02-05T13:01:06;15.45;;;2.95;;
22705;SDS011;11520;51.198;4.468;2023-02-05T13:03:42;16.83;;;3.33;;
22705;SDS011;11520;51.198;4.468;2023-02-05T13:06:20;15.43;;;4.10;;
22705;SDS011;11520;51.198;4.468;2023-02-05T13:08:57;18.63;;;3.70;;
22705;SDS011;11520;51.198;4.468;2023-02-05T13:11:38;26.05;;;4.53;;
22705;SDS011;11520;51.198;4.468;2023-02-05T13:14:12;18.35;;;3.80;;
22705;SDS011;11520;51.198;4.468;2023-02-05T13:17:00;16.55;;;3.28;;
22705;SDS011;11520;51.198;4.468;2023-02-05T13:19:42;22.17;;;3.70;;
22705;SDS011;11520;51.198;4.468;2023-02-05T13:22:31;17.20;;;2.88;;
22705;SDS011;11520;51.198;4.468;2023-02-05T13:25:33;18.17;;;2.75;;
22705;SDS011;11520;51.198;4.468;2023-02-05T13:28:39;24.63;;;3.17;;
22705;SDS011;11520;51.198;4.468;2023-02-05T13:31:31;16.52;;;3.10;;
22705;SDS011;11520;51.198;4.468;2023-02-05T13:34:06;19.13;;;3.20;;
22705;SDS011;11520;51.198;4.468;2023-02-05T13:39:23;17.25;;;3.97;;
22705;SDS011;11520;51.198;4.468;2023-02-05T13:45:34;18.20;;;3.60;;
22705;SDS011;11520;51.198;4.468;2023-02-05T14:01:46;14.48;;;2.40;;
22705;SDS011;11520;51.198;4.468;2023-02-05T14:04:22;19.25;;;3.22;;
22705;SDS011;11520;51.198;4.468;2023-02-05T14:07:00;24.17;;;3.50;;
22705;SDS011;11520;51.198;4.468;2023-02-05T14:09:35;19.45;;;3.53;;
22705;SDS011;11520;51.198;4.468;2023-02-05T14:12:07;14.52;;;2.95;;
22705;SDS011;11520;51.198;4.468;2023-02-05T14:14:39;17.88;;;3.35;;
22705;SDS011;11520;51.198;4.468;2023-02-05T14:19:56;20.50;;;4.22;;
22705;SDS011;11520;51.198;4.468;2023-02-05T14:22:45;25.40;;;3.80;;
22705;SDS011;11520;51.198;4.468;2023-02-05T14:30:33;18.65;;;3.50;;
22705;SDS011;11520;51.198;4.468;2023-02-05T14:38:37;18.50;;;3.08;;
22705;SDS011;11520;51.198;4.468;2023-02-05T14:41:11;19.52;;;2.90;;
22705;SDS011;11520;51.198;4.468;2023-02-05T14:43:44;21.88;;;4.00;;
22705;SDS011;11520;51.198;4.468;2023-02-05T14:46:35;19.83;;;3.05;;
22705;SDS011;11520;51.198;4.468;2023-02-05T14:49:19;13.85;;;2.85;;
22705;SDS011;11520;51.198;4.468;2023-02-05T14:51:55;21.65;;;3.88;;
22705;SDS011;11520;51.198;4.468;2023-02-05T14:54:27;18.45;;;2.97;;
22705;SDS011;11520;51.198;4.468;2023-02-05T15:00:06;14.98;;;2.55;;
22705;SDS011;11520;51.198;4.468;2023-02-05T15:02:59;19.92;;;3.08;;
22705;SDS011;11520;51.198;4.468;2023-02-05T15:08:08;16.45;;;3.20;;
22705;SDS011;11520;51.198;4.468;2023-02-05T15:10:40;18.20;;;3.10;;
22705;SDS011;11520;51.198;4.468;2023-02-05T15:13:10;16.00;;;2.80;;
22705;SDS011;11520;51.198;4.468;2023-02-05T15:15:37;16.70;;;3.80;;
22705;SDS011;11520;51.198;4.468;2023-02-05T15:18:04;18.60;;;3.38;;
22705;SDS011;11520;51.198;4.468;2023-02-05T15:20:51;12.73;;;2.92;;
22705;SDS011;11520;51.198;4.468;2023-02-05T15:29:11;18.50;;;3.35;;
22705;SDS011;11520;51.198;4.468;2023-02-05T15:34:44;28.00;;;4.50;;
22705;SDS011;11520;51.198;4.468;2023-02-05T15:37:39;30.17;;;4.20;;
22705;SDS011;11520;51.198;4.468;2023-02-05T15:42:43;17.65;;;3.88;;
22705;SDS011;11520;51.198;4.468;2023-02-05T15:48:02;26.70;;;4.38;;
22705;SDS011;11520;51.198;4.468;2023-02-05T15:50:46;22.08;;;3.90;;
22705;SDS011;11520;51.198;4.468;2023-02-05T15:56:13;17.15;;;2.92;;
22705;SDS011;11520;51.198;4.468;2023-02-05T15:58:55;22.67;;;3.55;;
22705;SDS011;11520;51.198;4.468;2023-02-05T16:01:33;17.55;;;2.80;;
22705;SDS011;11520;51.198;4.468;2023-02-05T16:04:19;17.50;;;3.47;;
22705;SDS011;11520;51.198;4.468;2023-02-05T16:06:56;19.60;;;3.35;;
22705;SDS011;11520;51.198;4.468;2023-02-05T16:09:24;24.13;;;3.67;;
22705;SDS011;11520;51.198;4.468;2023-02-05T16:11:54;23.33;;;3.75;;
22705;SDS011;11520;51.198;4.468;2023-02-05T16:14:21;20.30;;;3.65;;
22705;SDS011;11520;51.198;4.468;2023-02-05T16:19:18;21.35;;;4.88;;
22705;SDS011;11520;51.198;4.468;2023-02-05T16:21:52;23.02;;;3.55;;
22705;SDS011;11520;51.198;4.468;2023-02-05T16:24:29;17.27;;;3.35;;
22705;SDS011;11520;51.198;4.468;2023-02-05T16:29:35;18.98;;;3.45;;
22705;SDS011;11520;51.198;4.468;2023-02-05T16:32:05;22.38;;;3.38;;
22705;SDS011;11520;51.198;4.468;2023-02-05T16:34:39;20.00;;;3.33;;
22705;SDS011;11520;51.198;4.468;2023-02-05T16:37:06;22.85;;;3.75;;
22705;SDS011;11520;51.198;4.468;2023-02-05T16:39:41;21.67;;;3.10;;
22705;SDS011;11520;51.198;4.468;2023-02-05T16:42:32;15.27;;;3.17;;
22705;SDS011;11520;51.198;4.468;2023-02-05T16:45:18;19.48;;;3.05;;
22705;SDS011;11520;51.198;4.468;2023-02-05T16:50:47;25.38;;;3.58;;
22705;SDS011;11520;51.198;4.468;2023-02-05T16:53:19;30.70;;;5.30;;
22705;SDS011;11520;51.198;4.468;2023-02-05T16:55:47;22.90;;;3.92;;
22705;SDS011;11520;51.198;4.468;2023-02-05T16:58:19;15.85;;;3.17;;
22705;SDS011;11520;51.198;4.468;2023-02-05T17:00:57;14.63;;;2.83;;
22705;SDS011;11520;51.198;4.468;2023-02-05T17:03:27;24.60;;;4.25;;
22705;SDS011;11520;51.198;4.468;2023-02-05T17:05:59;21.83;;;3.88;;
22705;SDS011;11520;51.198;4.468;2023-02-05T17:08:31;22.38;;;4.20;;
22705;SDS011;11520;51.198;4.468;2023-02-05T17:11:02;20.92;;;3.60;;
22705;SDS011;11520;51.198;4.468;2023-02-05T17:18:56;24.67;;;5.20;;
22705;SDS011;11520;51.198;4.468;2023-02-05T17:21:27;25.70;;;4.13;;
22705;SDS011;11520;51.198;4.468;2023-02-05T17:24:00;18.63;;;3.90;;
22705;SDS011;11520;51.198;4.468;2023-02-05T17:26:32;20.42;;;4.03;;
22705;SDS011;11520;51.198;4.468;2023-02-05T17:29:03;19.90;;;4.32;;
22705;SDS011;11520;51.198;4.468;2023-02-05T17:31:39;22.95;;;3.53;;
22705;SDS011;11520;51.198;4.468;2023-02-05T17:34:06;23.50;;;3.88;;
22705;SDS011;11520;51.198;4.468;2023-02-05T17:36:35;17.63;;;3.58;;
22705;SDS011;11520;51.198;4.468;2023-02-05T17:41:31;26.13;;;4.88;;
22705;SDS011;11520;51.198;4.468;2023-02-05T17:44:19;21.67;;;4.13;;
22705;SDS011;11520;51.198;4.468;2023-02-05T17:46:45;19.42;;;5.05;;
22705;SDS011;11520;51.198;4.468;2023-02-05T17:49:11;22.45;;;4.35;;
22705;SDS011;11520;51.198;4.468;2023-02-05T17:51:38;23.38;;;4.25;;
22705;SDS011;11520;51.198;4.468;2023-02-05T17:54:13;32.22;;;5.32;;
22705;SDS011;11520;51.198;4.468;2023-02-05T17:56:40;22.42;;;4.60;;
22705;SDS011;11520;51.198;4.468;2023-02-05T17:59:09;28.17;;;4.30;;
22705;SDS011;11520;51.198;4.468;2023-02-05T18:01:36;26.98;;;5.38;;
22705;SDS011;11520;51.198;4.468;2023-02-05T18:04:02;29.00;;;4.90;;
22705;SDS011;11520;51.198;4.468;2023-02-05T18:06:27;21.50;;;4.95;;
22705;SDS011;11520;51.198;4.468;2023-02-05T18:08:54;29.45;;;5.13;;
22705;SDS011;11520;51.198;4.468;2023-02-05T18:11:21;25.27;;;4.90;;
22705;SDS011;11520;51.198;4.468;2023-02-05T18:13:46;31.75;;;5.70;;
22705;SDS011;11520;51.198;4.468;2023-02-05T18:16:14;35.15;;;5.35;;